Hlavní strana
METAR-TAF:

METAR-TAF

Letiště :

Örebro, Švédsko

zeměpisná šířka: 59-14N, zeměpisná délka: 015-03E, výška: 57 m

Aktuální stav počasí

Zpráva byla vytvořena před 25 minutami, v 00:50 UTC
Bezvětří
Teplota 9°C
Vlhkost vzduchu 93%
Tlak 1019 hPa
Viditelnost 10 km a více

METAR: ESOE 220050Z AUTO 00000KT 9999 BKN080/// 09/08 Q1019

Čas: 03:15 (01:15 UTC)

Předpověď počasí

Zpráva byla vytvořena před 4 hodinami a 45 minutami, v 20:30 UTC
Předpověď platná od 21 v 21 UTC do 22 v 01 UTC
Jihojihozápadní vítr 4 kt
Viditelnost 10 km a více
Žádná oblačnost pod 1500 m, nevyskytují se cumulonimby.

TAF: ESOE 212030Z 2121/2201 20004KT CAVOK

Stav a předpovědi počasí z více než 4 000 letišť (zprávy METAR a TAF).

Červené a žluté tečky na mapě představují dostupné meteorologické stanice.

Když kurzor umístíte na tečku, zobrazí se název stanice.

Pak kliknutím zobrazíte stav a předpověď počasí.

Chcete-li změnit mapu, kliknutím na zelené tlačítko se znaménkem +mapu přiblížíte, kliknutím na zelené tlačítko se znaménkem – mapu oddálíte a kliknutím na zelené šipky přejdete na sousední mapy.


METAR-TAF: